Time;durP1;ratioP1;P1;durP2;ratioP2;P2;SDS_P1;SDS_P2;PMS_P1;PMS_P2;Temp;Humidity;BMP_temperature;BMP_pressure;BME280_temperature;BME280_humidity;BME280_pressure;Samples;Min_cycle;Max_cycle;Signal;HPM_P1;HPM_P2
2021/06/23 00:02:15;;;;;;;6.85;2.33;;;;;;;23.30;58.08;99700.28;1672597;85;21065;-76
2021/06/23 00:04:43;;;;;;;8.13;1.98;;;;;;;23.26;58.18;99704.25;1657749;85;21112;-78
2021/06/23 00:07:10;;;;;;;3.87;1.70;;;;;;;23.25;58.25;99702.66;1683698;85;21170;-76
2021/06/23 00:09:37;;;;;;;14.40;2.45;;;;;;;23.25;58.32;99699.11;1683752;85;20961;-77
2021/06/23 00:12:05;;;;;;;7.05;2.55;;;;;;;23.25;58.34;99705.41;1657445;85;21038;-72
2021/06/23 00:14:32;;;;;;;4.75;2.20;;;;;;;23.28;58.32;99707.48;1653094;85;21125;-72
2021/06/23 00:16:58;;;;;;;9.55;1.80;;;;;;;23.32;58.25;99704.86;1656376;85;21125;-74
2021/06/23 00:19:25;;;;;;;8.40;3.50;;;;;;;23.35;58.29;99703.64;1657844;85;21517;-73
2021/06/23 00:21:51;;;;;;;5.47;3.40;;;;;;;23.33;58.66;99701.78;1655870;85;21093;-73
2021/06/23 00:24:18;;;;;;;10.28;3.95;;;;;;;23.31;58.93;99695.81;1631886;85;21582;-74
2021/06/23 00:26:45;;;;;;;9.40;2.60;;;;;;;23.31;58.92;99688.17;1653035;86;20981;-76
2021/06/23 00:29:11;;;;;;;4.47;2.22;;;;;;;23.33;59.08;99694.12;1656131;86;21040;-81
2021/06/23 00:31:38;;;;;;;4.42;3.00;;;;;;;23.35;59.05;99697.34;1658319;85;21144;-78
2021/06/23 00:34:05;;;;;;;4.45;2.65;;;;;;;23.37;59.03;99695.86;1631041;86;21067;-73
2021/06/23 00:36:31;;;;;;;9.93;3.02;;;;;;;23.39;59.02;99704.58;1656780;85;21025;-74
2021/06/23 00:38:58;;;;;;;6.35;3.25;;;;;;;23.36;59.14;99694.81;1664586;85;20962;-73
2021/06/23 00:41:25;;;;;;;5.92;2.65;;;;;;;23.37;59.10;99692.31;1683501;85;21150;-78
2021/06/23 00:43:52;;;;;;;7.40;4.05;;;;;;;23.33;59.18;99699.61;1655743;85;21366;-75
2021/06/23 00:46:19;;;;;;;11.85;2.87;;;;;;;23.32;59.20;99706.23;1656339;85;20999;-76
2021/06/23 00:48:46;;;;;;;4.67;2.00;;;;;;;23.34;59.13;99692.42;1683518;85;20953;-75
2021/06/23 00:51:14;;;;;;;8.43;3.05;;;;;;;23.33;59.24;99691.38;1594247;86;21566;-76
2021/06/23 00:53:47;;;;;;;7.83;4.08;;;;;;;23.27;59.51;99699.00;1648701;86;21057;-75
2021/06/23 00:56:15;;;;;;;9.43;4.15;;;;;;;23.20;59.75;99694.63;1673564;85;21080;-77
2021/06/23 00:58:42;;;;;;;9.50;2.87;;;;;;;23.13;60.20;99695.70;1656055;85;21565;-74
2021/06/23 01:01:10;;;;;;;7.65;3.12;;;;;;;23.09;60.34;99696.70;1655485;86;21079;-72
2021/06/23 01:03:37;;;;;;;7.08;3.02;;;;;;;23.02;60.68;99697.25;1661333;85;21057;-71
2021/06/23 01:06:08;;;;;;;6.47;2.58;;;;;;;22.98;60.87;99699.83;1674080;85;21021;-72
2021/06/23 01:08:35;;;;;;;8.55;2.72;;;;;;;23.00;60.82;99697.58;1651626;86;21261;-72
2021/06/23 01:11:07;;;;;;;7.65;3.05;;;;;;;23.00;60.92;99694.83;1673613;85;21077;-71
2021/06/23 01:14:04;;;;;;;11.88;3.92;;;;;;;22.98;60.54;99692.17;1659218;85;20899;-71
2021/06/23 01:16:38;;;;;;;7.58;3.20;;;;;;;23.03;60.72;99696.09;1653030;86;21114;-70
2021/06/23 01:19:10;;;;;;;6.03;3.50;;;;;;;23.01;60.67;99695.63;1659193;83;21144;-71
2021/06/23 01:21:44;;;;;;;9.73;4.65;;;;;;;22.99;60.92;99690.47;1665831;85;21915;-72
2021/06/23 01:24:11;;;;;;;5.70;3.60;;;;;;;22.94;61.12;99694.78;1634974;85;21559;-72
2021/06/23 01:26:38;;;;;;;13.15;3.58;;;;;;;22.91;61.24;99700.12;1682425;85;21678;-70
2021/06/23 01:29:04;;;;;;;6.35;2.87;;;;;;;22.88;61.13;99697.47;1682244;85;21563;-71
2021/06/23 01:31:42;;;;;;;6.30;2.77;;;;;;;22.92;61.10;99699.81;1630022;86;22728;-71
2021/06/23 01:34:09;;;;;;;9.03;2.67;;;;;;;22.93;61.03;99700.59;1655818;86;21249;-72
2021/06/23 01:36:36;;;;;;;8.85;3.05;;;;;;;22.89;61.22;99695.53;1647496;85;21002;-72
2021/06/23 01:39:03;;;;;;;23.98;4.30;;;;;;;22.85;61.33;99687.73;1630378;85;21545;-72
2021/06/23 01:41:30;;;;;;;7.67;2.90;;;;;;;22.83;61.46;99694.13;1631176;85;21022;-72
2021/06/23 01:43:56;;;;;;;8.45;3.87;;;;;;;22.82;61.64;99689.78;1644169;86;21087;-72
2021/06/23 01:46:23;;;;;;;5.33;2.90;;;;;;;22.81;61.57;99682.67;1675542;85;21614;-71
2021/06/23 01:48:50;;;;;;;9.55;2.83;;;;;;;22.75;62.01;99695.77;1675448;85;21060;-72
2021/06/23 01:51:18;;;;;;;16.40;2.85;;;;;;;22.70;62.06;99698.70;1655792;86;21014;-73
2021/06/23 01:53:46;;;;;;;3.42;2.40;;;;;;;22.68;62.14;99696.84;1657425;85;21005;-70
2021/06/23 01:56:13;;;;;;;6.12;2.87;;;;;;;22.67;62.14;99691.67;1658237;85;20922;-72
2021/06/23 01:58:42;;;;;;;12.37;3.08;;;;;;;22.69;61.96;99688.02;1630752;86;21083;-72
2021/06/23 02:01:28;;;;;;;5.20;2.50;;;;;;;22.73;61.85;99686.28;1630507;85;20997;-72
2021/06/23 02:04:18;;;;;;;7.62;2.77;;;;;;;22.74;61.76;99681.81;1655515;86;21014;-71
2021/06/23 02:06:58;;;;;;;13.03;3.10;;;;;;;22.77;61.66;99680.36;1639954;85;21551;-71
2021/06/23 02:09:58;;;;;;;6.28;3.40;;;;;;;22.80;61.52;99682.44;1656460;85;21108;-70
2021/06/23 02:13:23;;;;;;;3.45;2.77;;;;;;;22.82;61.47;99689.78;1630936;86;21135;-71
2021/06/23 02:15:52;;;;;;;5.72;2.75;;;;;;;22.84;61.47;99691.04;1680535;85;21542;-72
2021/06/23 02:18:20;;;;;;;5.08;2.47;;;;;;;22.81;61.67;99686.79;1609458;86;21044;-72
2021/06/23 02:21:04;;;;;;;3.87;2.67;;;;;;;22.79;61.63;99686.30;1633305;85;21506;-75
2021/06/23 02:23:42;;;;;;;10.25;3.42;;;;;;;22.77;61.51;99682.55;1683756;85;21602;-72
2021/06/23 02:26:09;;;;;;;6.37;2.95;;;;;;;22.81;61.37;99686.23;1671113;85;21044;-71
2021/06/23 02:28:37;;;;;;;9.50;2.60;;;;;;;22.85;61.29;99691.84;1683481;85;20954;-71
2021/06/23 02:31:05;;;;;;;4.90;2.62;;;;;;;22.88;61.23;99691.98;1657722;85;21100;-70
2021/06/23 02:33:35;;;;;;;4.97;2.58;;;;;;;22.88;61.13;99691.17;1682299;85;20997;-70
2021/06/23 02:36:02;;;;;;;11.40;3.60;;;;;;;22.89;61.05;99688.11;1681191;85;21104;-71
2021/06/23 02:38:30;;;;;;;6.75;2.52;;;;;;;22.92;60.98;99690.20;1652965;86;21558;-71
2021/06/23 02:40:59;;;;;;;5.15;2.47;;;;;;;22.93;60.93;99692.36;1630659;86;21028;-70
2021/06/23 02:43:26;;;;;;;10.00;2.75;;;;;;;22.93;60.84;99693.73;1655832;86;20989;-70
2021/06/23 02:45:57;;;;;;;6.53;2.85;;;;;;;22.95;60.90;99695.02;1672033;85;21025;-72
2021/06/23 02:48:25;;;;;;;7.62;3.58;;;;;;;22.94;60.86;99697.52;1656097;86;21078;-72
2021/06/23 02:51:04;;;;;;;8.50;4.33;;;;;;;22.94;60.93;99702.20;1657269;85;21102;-70
2021/06/23 02:53:35;;;;;;;8.23;3.37;;;;;;;22.90;61.13;99705.38;1675168;85;21258;-71
2021/06/23 02:56:02;;;;;;;19.25;3.55;;;;;;;22.80;61.35;99702.44;1600859;88;21094;-70
2021/06/23 02:58:31;;;;;;;5.25;3.27;;;;;;;22.78;61.42;99708.03;1600590;87;21271;-71
2021/06/23 03:00:57;;;;;;;8.65;2.85;;;;;;;22.74;61.52;99706.49;1599401;89;21096;-71
2021/06/23 03:03:26;;;;;;;5.60;3.20;;;;;;;22.73;61.43;99709.59;1632829;86;22021;-70
2021/06/23 03:05:54;;;;;;;8.18;3.10;;;;;;;22.75;61.43;99704.56;1609380;88;20979;-71
2021/06/23 03:08:22;;;;;;;6.72;3.22;;;;;;;22.74;61.62;99712.55;1630774;86;20970;-70
2021/06/23 03:10:49;;;;;;;10.55;4.03;;;;;;;22.72;61.72;99714.27;1671384;85;21101;-70
2021/06/23 03:13:19;;;;;;;9.05;3.33;;;;;;;22.74;61.72;99710.61;1672441;85;21071;-70
2021/06/23 03:16:04;;;;;;;7.25;2.62;;;;;;;22.77;61.52;99706.41;1676081;85;21169;-72
2021/06/23 03:18:35;;;;;;;15.33;3.73;;;;;;;22.81;61.27;99715.59;1659661;85;21064;-71
2021/06/23 03:21:04;;;;;;;9.10;2.83;;;;;;;22.84;61.19;99707.50;1657876;85;21072;-71
2021/06/23 03:23:32;;;;;;;13.25;3.75;;;;;;;22.91;60.86;99706.98;1653033;86;21584;-70
2021/06/23 03:25:59;;;;;;;5.67;3.05;;;;;;;22.99;60.49;99708.88;1634085;85;21124;-71
2021/06/23 03:28:26;;;;;;;17.20;4.97;;;;;;;23.06;60.34;99702.30;1661351;85;21625;-71
2021/06/23 03:30:55;;;;;;;13.38;3.45;;;;;;;23.12;60.09;99709.19;1655840;86;20958;-71
2021/06/23 03:33:22;;;;;;;9.40;2.40;;;;;;;23.19;59.89;99704.55;1665314;85;20968;-73
2021/06/23 03:35:59;;;;;;;6.20;2.90;;;;;;;23.25;59.49;99711.46;1658964;85;21044;-72
2021/06/23 03:38:25;;;;;;;17.65;4.03;;;;;;;23.29;59.24;99710.45;1632094;86;21279;-72
2021/06/23 03:40:53;;;;;;;5.00;2.65;;;;;;;23.33;59.29;99708.66;1656246;86;21162;-72
2021/06/23 03:43:19;;;;;;;6.53;3.87;;;;;;;23.37;59.05;99708.78;1631859;85;21061;-72
2021/06/23 03:45:48;;;;;;;11.50;2.70;;;;;;;23.40;59.04;99703.41;1639607;85;21084;-75
2021/06/23 03:48:15;;;;;;;5.37;3.55;;;;;;;23.44;58.92;99709.06;1630777;86;21115;-74
2021/06/23 03:50:47;;;;;;;6.15;3.20;;;;;;;23.48;58.77;99703.16;1656308;85;21092;-72
2021/06/23 03:53:15;;;;;;;12.25;3.15;;;;;;;23.54;58.62;99696.91;1683989;85;21794;-73
2021/06/23 03:55:42;;;;;;;11.15;4.33;;;;;;;23.61;58.19;99708.14;1657342;85;21037;-74
2021/06/23 03:58:08;;;;;;;22.22;3.33;;;;;;;23.66;58.12;99705.19;1653252;85;21071;-72
2021/06/23 04:00:36;;;;;;;6.42;4.10;;;;;;;23.73;57.94;99701.34;1640985;85;21048;-72
2021/06/23 04:03:05;;;;;;;15.32;4.12;;;;;;;23.78;57.85;99703.31;1680674;85;21049;-72
2021/06/23 04:05:33;;;;;;;11.97;3.15;;;;;;;23.81;58.00;99695.77;1654904;85;21770;-71
2021/06/23 04:08:02;;;;;;;12.25;3.40;;;;;;;23.86;57.89;99698.30;1663294;85;21038;-72
2021/06/23 04:10:28;;;;;;;5.45;3.77;;;;;;;23.92;57.78;99698.09;1656347;85;21598;-71
2021/06/23 04:12:55;;;;;;;7.92;3.30;;;;;;;23.97;57.70;99697.32;1655835;86;21082;-72
2021/06/23 04:15:22;;;;;;;16.10;3.00;;;;;;;24.03;57.41;99696.54;1609408;86;21530;-73
2021/06/23 04:17:48;;;;;;;23.00;4.70;;;;;;;24.09;57.37;99699.28;1672185;85;21252;-71
2021/06/23 04:20:16;;;;;;;15.18;3.33;;;;;;;24.15;57.39;99691.87;1683337;85;21062;-71
2021/06/23 04:22:48;;;;;;;9.20;4.08;;;;;;;24.22;57.15;99695.48;1655887;85;21634;-71
2021/06/23 04:25:16;;;;;;;7.40;3.10;;;;;;;24.28;57.05;99692.72;1657111;85;21700;-71
2021/06/23 04:27:46;;;;;;;8.05;2.85;;;;;;;24.34;56.92;99689.98;1676840;85;21575;-72
2021/06/23 04:30:14;;;;;;;7.40;4.17;;;;;;;24.41;56.85;99688.06;1683277;85;21082;-72
2021/06/23 04:32:42;;;;;;;3.70;2.87;;;;;;;24.48;56.95;99686.91;1653058;86;20964;-73
2021/06/23 04:35:13;;;;;;;14.45;2.95;;;;;;;24.55;56.57;99677.53;1638796;86;21513;-72
2021/06/23 04:37:43;;;;;;;9.95;2.90;;;;;;;24.63;56.16;99682.92;1675554;85;21069;-71
2021/06/23 04:40:13;;;;;;;6.85;2.67;;;;;;;24.72;56.04;99675.92;1683808;85;21534;-72
2021/06/23 04:42:41;;;;;;;10.18;2.77;;;;;;;24.82;55.73;99683.72;1683004;85;21053;-71
2021/06/23 04:45:11;;;;;;;9.05;3.80;;;;;;;24.89;55.31;99682.58;1683387;85;21065;-73
2021/06/23 04:47:40;;;;;;;3.62;2.40;;;;;;;24.95;55.71;99680.41;1663230;85;20950;-72
2021/06/23 04:50:09;;;;;;;7.87;3.17;;;;;;;24.98;55.58;99686.04;1656339;85;21471;-72
2021/06/23 04:52:37;;;;;;;10.20;2.70;;;;;;;25.02;55.56;99670.44;1652867;86;21077;-69
2021/06/23 04:55:06;;;;;;;8.03;3.45;;;;;;;25.05;55.29;99671.11;1655997;85;21984;-71
2021/06/23 04:57:34;;;;;;;7.58;3.27;;;;;;;25.10;55.52;99673.63;1627227;85;21037;-72
2021/06/23 05:00:02;;;;;;;2.72;2.45;;;;;;;25.13;55.45;99677.05;1683062;85;21633;-72
2021/06/23 05:02:29;;;;;;;5.55;2.87;;;;;;;25.15;55.41;99678.89;1661773;85;21625;-71
2021/06/23 05:04:57;;;;;;;10.60;2.37;;;;;;;25.19;55.29;99684.50;1632562;86;21064;-69
2021/06/23 05:07:23;;;;;;;6.85;2.77;;;;;;;25.24;55.67;99683.45;1658806;85;21527;-69
2021/06/23 05:09:51;;;;;;;6.67;2.87;;;;;;;25.27;55.42;99684.96;1670847;85;22299;-71
2021/06/23 05:12:18;;;;;;;14.45;4.10;;;;;;;25.29;55.31;99685.40;1651053;85;21567;-72
2021/06/23 05:14:44;;;;;;;7.85;3.15;;;;;;;25.29;55.36;99691.47;1643655;87;21109;-71
2021/06/23 05:17:12;;;;;;;15.55;3.40;;;;;;;25.26;55.67;99686.67;1643360;87;21161;-69
2021/06/23 05:19:38;;;;;;;15.53;4.00;;;;;;;25.25;55.95;99687.81;1643135;87;21081;-72
2021/06/23 05:22:07;;;;;;;9.65;2.95;;;;;;;25.26;56.26;99688.86;1622327;87;21001;-71
2021/06/23 05:24:33;;;;;;;8.10;3.42;;;;;;;25.28;56.22;99696.17;1622581;85;21071;-71
2021/06/23 05:27:00;;;;;;;8.40;2.72;;;;;;;25.30;56.04;99693.09;1652448;85;21074;-72
2021/06/23 05:29:27;;;;;;;8.13;2.75;;;;;;;25.32;55.98;99693.55;1670503;85;21006;-72
2021/06/23 05:31:55;;;;;;;3.67;2.52;;;;;;;25.32;56.09;99694.36;1669692;85;21033;-72
2021/06/23 05:34:21;;;;;;;14.98;3.92;;;;;;;25.33;56.21;99692.38;1658666;85;20990;-72
2021/06/23 05:36:50;;;;;;;7.15;2.85;;;;;;;25.33;56.22;99695.94;1635297;87;21034;-72
2021/06/23 05:39:17;;;;;;;6.37;2.67;;;;;;;25.34;56.35;99708.56;1643333;87;21136;-71
2021/06/23 05:41:43;;;;;;;13.10;2.95;;;;;;;25.34;55.99;99697.55;1653287;85;21058;-69
2021/06/23 05:44:09;;;;;;;6.33;2.83;;;;;;;25.36;56.26;99692.51;1670761;85;21543;-76
2021/06/23 05:46:36;;;;;;;10.55;3.85;;;;;;;25.38;56.55;99686.63;1660700;85;20974;-70
2021/06/23 05:49:03;;;;;;;5.67;3.27;;;;;;;25.42;56.57;99684.20;1643963;85;21058;-72
2021/06/23 05:51:31;;;;;;;8.75;3.15;;;;;;;25.46;56.68;99686.52;1643328;87;21061;-71
2021/06/23 05:53:57;;;;;;;14.95;3.65;;;;;;;25.49;56.55;99675.36;1643528;87;21074;-73
2021/06/23 05:56:24;;;;;;;13.45;3.50;;;;;;;25.54;56.25;99685.59;1637032;85;21139;-76
2021/06/23 05:58:50;;;;;;;12.20;3.52;;;;;;;25.60;56.54;99686.16;1657887;85;20935;-71
2021/06/23 06:01:17;;;;;;;8.33;2.95;;;;;;;25.67;56.71;99674.52;1670715;85;21487;-71
2021/06/23 06:03:43;;;;;;;10.72;3.72;;;;;;;25.74;56.30;99673.35;1671055;85;21078;-70
2021/06/23 06:06:10;;;;;;;7.92;4.42;;;;;;;25.81;56.35;99673.53;1628236;88;21695;-71
2021/06/23 06:08:37;;;;;;;13.88;3.87;;;;;;;25.90;55.95;99671.45;1662022;85;22242;-70
2021/06/23 06:11:03;;;;;;;11.03;3.60;;;;;;;25.95;55.38;99673.92;1628764;88;21072;-71
2021/06/23 06:13:31;;;;;;;13.68;3.15;;;;;;;26.00;55.40;99673.67;1648357;85;21049;-71
2021/06/23 06:15:57;;;;;;;12.63;4.15;;;;;;;26.03;55.66;99668.84;1628823;88;21580;-74
2021/06/23 06:18:24;;;;;;;10.08;3.65;;;;;;;26.09;55.58;99668.02;1600371;89;21578;-70
2021/06/23 06:20:53;;;;;;;7.60;3.30;;;;;;;26.17;55.19;99667.84;1636735;85;21332;-73
2021/06/23 06:23:20;;;;;;;5.45;2.75;;;;;;;26.20;54.91;99671.26;1600641;88;21086;-70
2021/06/23 06:25:47;;;;;;;10.32;3.08;;;;;;;26.21;55.05;99667.38;1657457;85;21076;-71
2021/06/23 06:28:13;;;;;;;7.50;2.98;;;;;;;26.25;55.27;99658.62;1662862;85;20958;-71
2021/06/23 06:30:40;;;;;;;8.63;3.45;;;;;;;26.32;54.49;99649.73;1657756;85;21085;-70
2021/06/23 06:33:08;;;;;;;11.35;3.25;;;;;;;26.34;54.53;99653.73;1679879;85;21841;-71
2021/06/23 06:35:35;;;;;;;14.68;3.45;;;;;;;26.39;54.29;99649.33;1656569;85;21541;-73
2021/06/23 06:38:03;;;;;;;11.70;3.85;;;;;;;26.47;54.29;99644.80;1630881;86;21534;-75
2021/06/23 06:40:30;;;;;;;13.75;3.65;;;;;;;26.53;53.66;99645.30;1655912;86;21052;-71
2021/06/23 06:42:56;;;;;;;11.68;3.98;;;;;;;26.60;53.93;99647.67;1631687;85;21048;-71
2021/06/23 06:45:23;;;;;;;7.40;3.02;;;;;;;26.65;53.48;99643.84;1658672;85;21143;-72
2021/06/23 06:47:49;;;;;;;19.02;4.97;;;;;;;26.70;53.20;99642.19;1645439;85;20947;-73
2021/06/23 06:50:16;;;;;;;12.18;4.03;;;;;;;26.76;53.26;99651.80;1683628;85;21010;-71
2021/06/23 06:52:43;;;;;;;12.25;4.08;;;;;;;26.81;53.41;99647.39;1657701;85;21010;-72
2021/06/23 06:55:11;;;;;;;8.65;3.10;;;;;;;26.88;53.29;99657.23;1676352;85;20947;-72
2021/06/23 06:57:37;;;;;;;10.85;4.35;;;;;;;26.99;53.45;99656.90;1668878;85;21231;-71
2021/06/23 07:00:06;;;;;;;4.78;3.17;;;;;;;27.09;53.23;99650.82;1655906;86;21103;-70
2021/06/23 07:02:33;;;;;;;9.68;3.70;;;;;;;27.22;52.92;99664.72;1631142;86;21065;-72
2021/06/23 07:04:59;;;;;;;6.55;3.12;;;;;;;27.34;52.54;99663.77;1631042;85;20996;-71
2021/06/23 07:07:26;;;;;;;11.88;3.33;;;;;;;27.43;52.17;99659.44;1639078;86;21240;-71
2021/06/23 07:09:52;;;;;;;6.83;3.37;;;;;;;27.52;51.97;99669.71;1643430;85;21076;-72
2021/06/23 07:12:20;;;;;;;7.40;4.25;;;;;;;27.58;52.29;99666.28;1629054;88;21060;-71
2021/06/23 07:14:46;;;;;;;9.28;3.17;;;;;;;27.65;52.16;99671.96;1647304;85;21523;-72
2021/06/23 07:17:15;;;;;;;6.62;3.25;;;;;;;27.75;52.09;99674.14;1636457;86;21140;-71
2021/06/23 07:19:42;;;;;;;12.53;3.77;;;;;;;27.84;52.24;99672.53;1630291;86;21012;-71
2021/06/23 07:22:08;;;;;;;9.45;3.27;;;;;;;27.95;52.26;99668.02;1642365;87;21180;-73
2021/06/23 07:24:34;;;;;;;8.80;3.42;;;;;;;28.06;52.00;99662.66;1625128;85;21575;-71
2021/06/23 07:27:04;;;;;;;10.82;3.33;;;;;;;28.15;51.73;99667.42;1619823;88;21008;-71
2021/06/23 07:29:30;;;;;;;11.80;3.45;;;;;;;28.21;51.85;99663.16;1636457;87;21064;-71
2021/06/23 07:37:03;;;;;;;7.80;3.22;;;;;;;28.41;51.03;99659.75;1617554;88;21076;-71
2021/06/23 07:39:32;;;;;;;6.75;4.08;;;;;;;28.48;51.49;99659.30;1645222;85;21273;-72
2021/06/23 07:41:58;;;;;;;6.62;3.92;;;;;;;28.54;51.51;99652.27;1629602;86;21096;-71
2021/06/23 07:47:00;;;;;;;17.32;3.95;;;;;;;28.68;51.51;99656.45;1604681;88;21790;-71
2021/06/23 07:49:29;;;;;;;5.80;3.58;;;;;;;28.76;51.37;99662.34;1605225;88;21583;-72
2021/06/23 07:54:49;;;;;;;11.53;4.28;;;;;;;28.90;51.12;99666.13;1628998;88;21061;-71
2021/06/23 08:10:46;;;;;;;11.88;4.60;;;;;;;29.35;50.59;99666.56;1655266;85;21500;-74
2021/06/23 08:13:13;;;;;;;6.05;4.00;;;;;;;29.43;50.63;99669.66;1634085;85;21332;-76
2021/06/23 08:15:42;;;;;;;6.30;3.62;;;;;;;29.51;50.33;99663.61;1649549;85;21551;-78
2021/06/23 08:18:09;;;;;;;8.55;5.45;;;;;;;29.56;50.54;99670.20;1643570;87;21601;-76
2021/06/23 08:20:39;;;;;;;11.33;4.28;;;;;;;29.60;50.81;99666.08;1653766;85;21042;-76
2021/06/23 08:23:06;;;;;;;6.58;4.28;;;;;;;29.67;50.32;99672.53;1632363;85;21621;-75
2021/06/23 08:25:33;;;;;;;12.18;4.08;;;;;;;29.76;50.16;99668.87;1638987;85;21061;-75
2021/06/23 08:27:59;;;;;;;7.75;3.60;;;;;;;29.87;50.16;99673.95;1623409;87;21052;-75
2021/06/23 08:30:25;;;;;;;5.50;4.10;;;;;;;29.94;50.21;99668.28;1646428;85;21061;-74
2021/06/23 08:32:52;;;;;;;16.73;4.45;;;;;;;30.03;50.25;99667.39;1595239;88;21593;-76
2021/06/23 08:35:19;;;;;;;10.53;5.25;;;;;;;30.12;50.04;99670.06;1648187;85;21081;-76
2021/06/23 08:37:45;;;;;;;13.22;3.80;;;;;;;30.20;50.02;99673.13;1647199;85;21571;-76
2021/06/23 08:40:13;;;;;;;6.22;4.00;;;;;;;30.29;49.71;99675.00;1613878;88;21028;-73
2021/06/23 08:42:40;;;;;;;17.15;4.05;;;;;;;30.38;49.99;99676.65;1650026;85;20974;-73
2021/06/23 08:45:09;;;;;;;9.75;4.05;;;;;;;30.48;49.85;99685.11;1603304;88;21064;-72
2021/06/23 08:47:44;;;;;;;18.42;5.40;;;;;;;30.57;49.78;99682.00;1623278;87;21598;-72
2021/06/23 08:50:14;;;;;;;7.37;3.45;;;;;;;30.68;49.23;99684.28;1669504;85;21120;-75
2021/06/23 08:52:40;;;;;;;12.50;4.20;;;;;;;30.80;49.37;99685.36;1669910;85;21689;-72
2021/06/23 08:55:08;;;;;;;6.08;4.80;;;;;;;30.91;48.52;99675.13;1671745;85;21014;-70
2021/06/23 08:57:34;;;;;;;9.58;3.92;;;;;;;30.96;48.20;99671.98;1671799;85;21014;-73
2021/06/23 09:00:04;;;;;;;10.45;4.20;;;;;;;30.94;48.25;99659.06;1648847;85;21026;-74
2021/06/23 09:02:31;;;;;;;11.90;4.58;;;;;;;30.98;48.53;99666.05;1644597;85;21106;-74
2021/06/23 09:05:06;;;;;;;10.78;5.30;;;;;;;31.00;48.52;99659.50;1648771;85;20989;-74
2021/06/23 09:07:58;;;;;;;10.82;4.42;;;;;;;31.04;48.28;99655.59;1656637;86;21061;-73
2021/06/23 09:10:32;;;;;;;18.55;5.30;;;;;;;31.11;48.43;99651.48;1656567;86;21000;-73
2021/06/23 09:13:07;;;;;;;8.70;4.53;;;;;;;31.17;47.97;99655.45;1663279;85;21065;-77
2021/06/23 09:15:52;;;;;;;8.75;4.60;;;;;;;31.21;47.88;99644.97;1660587;85;20961;-75
2021/06/23 09:18:21;;;;;;;;;;;;;;;31.23;48.13;99649.53;1679772;85;21087;-77
2021/06/23 09:20:52;;;;;;;17.85;4.50;;;;;;;31.31;48.61;99655.34;1670202;85;20190;-76
2021/06/23 09:23:39;;;;;;;8.75;4.28;;;;;;;31.40;48.77;99664.13;1656505;86;21085;-78
2021/06/23 09:26:29;;;;;;;11.35;5.30;;;;;;;31.47;48.79;99657.98;1618933;86;21097;-77
2021/06/23 09:29:17;;;;;;;27.13;4.45;;;;;;;31.53;48.40;99662.59;1663181;85;21152;-77
2021/06/23 09:31:58;;;;;;;7.37;4.42;;;;;;;31.64;47.46;99665.45;1660662;85;21034;-75
2021/06/23 09:34:34;;;;;;;13.20;4.58;;;;;;;31.69;47.31;99675.60;1672666;85;21017;-76
2021/06/23 09:37:28;;;;;;;12.98;4.60;;;;;;;31.73;47.61;99664.48;1655156;85;21569;-75
2021/06/23 09:40:17;;;;;;;6.50;4.30;;;;;;;31.80;47.18;99674.25;1665231;85;21037;-78
2021/06/23 09:42:51;;;;;;;8.20;3.90;;;;;;;31.86;47.33;99674.05;1676815;85;21045;-73
2021/06/23 09:45:19;;;;;;;12.07;4.55;;;;;;;31.95;47.31;99683.62;1659340;85;21542;-72
2021/06/23 09:47:46;;;;;;;8.00;4.22;;;;;;;32.00;46.91;99676.87;1684316;85;21013;-75
2021/06/23 09:50:22;;;;;;;12.37;4.83;;;;;;;32.05;46.43;99684.83;1655642;86;21026;-76
2021/06/23 09:53:04;;;;;;;14.98;5.10;;;;;;;32.15;46.24;99682.70;1631334;86;20956;-74
2021/06/23 09:55:50;;;;;;;9.33;3.55;;;;;;;32.28;45.06;99678.34;1656697;85;21117;-75
2021/06/23 09:58:22;;;;;;;19.25;4.72;;;;;;;32.41;43.54;99671.20;1633195;86;21029;-74
2021/06/23 10:01:10;;;;;;;12.23;4.62;;;;;;;32.50;42.71;99674.19;1633517;86;20997;-72
2021/06/23 10:03:55;;;;;;;14.35;4.35;;;;;;;32.59;42.63;99677.37;1660036;85;21101;-71
2021/06/23 10:06:35;;;;;;;15.25;4.28;;;;;;;32.69;42.33;99675.20;1624981;88;21096;-73
2021/06/23 10:09:29;;;;;;;4.67;3.87;;;;;;;32.81;41.29;99682.55;1655992;86;21768;-74
2021/06/23 10:12:08;;;;;;;31.77;5.72;;;;;;;32.81;41.59;99673.39;1655918;86;20998;-73
2021/06/23 10:14:41;;;;;;;9.10;3.40;;;;;;;32.80;41.74;99676.00;1654720;86;21535;-74
2021/06/23 10:17:08;;;;;;;11.85;4.22;;;;;;;32.88;41.80;99671.41;1660203;85;21074;-73
2021/06/23 10:19:35;;;;;;;16.20;4.03;;;;;;;32.96;40.08;99669.98;1656819;85;21048;-72
2021/06/23 10:22:06;;;;;;;19.25;4.35;;;;;;;33.04;39.67;99671.59;1665131;85;21134;-71
2021/06/23 10:24:33;;;;;;;18.77;6.05;;;;;;;33.18;39.03;99673.78;1660194;85;21566;-72
2021/06/23 10:27:04;;;;;;;13.65;4.22;;;;;;;33.34;38.61;99676.69;1684240;85;21030;-73
2021/06/23 10:29:33;;;;;;;14.30;4.15;;;;;;;33.46;38.60;99677.66;1683985;85;21574;-73
2021/06/23 10:32:00;;;;;;;12.47;4.87;;;;;;;33.51;36.72;99671.07;1660043;85;21554;-76
2021/06/23 10:34:27;;;;;;;11.25;4.95;;;;;;;33.44;36.83;99668.89;1683538;85;21148;-75
2021/06/23 10:36:56;;;;;;;13.58;3.65;;;;;;;33.35;37.48;99673.51;1656240;86;21013;-79
2021/06/23 10:39:26;;;;;;;6.75;3.87;;;;;;;33.29;38.12;99675.91;1681592;85;21249;-76
2021/06/23 10:41:55;;;;;;;12.07;4.00;;;;;;;33.32;38.77;99674.92;1660399;85;21554;-77
2021/06/23 10:44:25;;;;;;;17.23;5.00;;;;;;;33.35;39.26;99684.66;1659802;85;21045;-75
2021/06/23 10:46:57;;;;;;;7.15;4.37;;;;;;;33.40;39.53;99680.66;1660430;85;21017;-78
2021/06/23 10:49:46;;;;;;;;;;;;;;;33.46;39.60;99684.03;1657444;86;21073;-78
2021/06/23 10:52:27;;;;;;;14.10;4.92;;;;;;;33.50;39.03;99688.20;1662590;85;20469;-79
2021/06/23 10:54:58;;;;;;;19.67;5.75;;;;;;;33.61;38.71;99688.96;1672298;85;21093;-79
2021/06/23 10:57:32;;;;;;;12.60;4.58;;;;;;;33.75;39.17;99690.32;1683802;85;21527;-80
2021/06/23 11:00:02;;;;;;;13.00;4.62;;;;;;;33.84;38.94;99688.48;1682439;85;21821;-78
2021/06/23 11:02:36;;;;;;;22.22;5.87;;;;;;;33.82;38.98;99690.87;1680624;85;20966;-75
2021/06/23 11:05:13;;;;;;;18.62;4.60;;;;;;;33.91;39.22;99680.08;1636504;86;21584;-77
2021/06/23 11:07:45;;;;;;;23.05;5.92;;;;;;;34.08;38.18;99677.77;1654414;85;21065;-78
2021/06/23 11:10:26;;;;;;;12.80;5.83;;;;;;;34.27;37.22;99680.07;1624504;88;21075;-80
2021/06/23 11:13:01;;;;;;;27.07;5.42;;;;;;;34.32;37.47;99678.84;1657118;85;21243;-82
2021/06/23 11:15:40;;;;;;;24.70;5.47;;;;;;;34.33;37.83;99675.64;1617200;88;21044;-74
2021/06/23 11:18:31;;;;;;;43.28;9.05;;;;;;;34.46;36.33;99687.91;1655514;85;21014;-74
2021/06/23 11:21:14;;;;;;;33.90;6.62;;;;;;;34.46;35.90;99679.52;1579544;89;21047;-77
2021/06/23 11:23:55;;;;;;;51.15;9.58;;;;;;;34.55;35.78;99686.83;1645571;87;21046;-76
2021/06/23 11:26:30;;;;;;;50.92;7.70;;;;;;;34.68;34.70;99685.75;1638352;86;21226;-77
2021/06/23 11:29:10;;;;;;;36.05;6.95;;;;;;;34.71;34.70;99687.73;1629563;86;21648;-77
2021/06/23 11:31:49;;;;;;;46.48;8.03;;;;;;;34.63;34.80;99697.97;1619896;88;22145;-74
2021/06/23 11:34:43;;;;;;;24.60;7.08;;;;;;;34.56;34.58;99694.02;1649335;85;21520;-74
2021/06/23 11:37:15;;;;;;;26.42;6.33;;;;;;;34.64;34.76;99700.92;1619166;88;21059;-73
2021/06/23 11:39:42;;;;;;;27.03;6.67;;;;;;;34.73;35.29;99690.09;1667010;85;21203;-81
2021/06/23 11:42:09;;;;;;;27.62;6.35;;;;;;;34.74;35.76;99690.30;1673196;85;21036;-75
2021/06/23 11:44:38;;;;;;;37.35;7.58;;;;;;;34.71;36.03;99698.91;1653588;85;21549;-81
2021/06/23 11:47:05;;;;;;;33.67;7.78;;;;;;;34.68;36.46;99688.54;1652922;86;21041;-79
2021/06/23 11:49:34;;;;;;;40.20;9.53;;;;;;;34.78;36.93;99688.25;1636801;86;21625;-79
2021/06/23 11:52:04;;;;;;;25.05;7.55;;;;;;;34.88;36.86;99692.35;1657974;85;21076;-74
2021/06/23 11:54:31;;;;;;;33.23;7.22;;;;;;;34.85;36.42;99689.00;1636319;86;20927;-73
2021/06/23 11:56:58;;;;;;;19.77;6.17;;;;;;;34.66;36.64;99695.13;1658798;85;21099;-76
2021/06/23 11:59:24;;;;;;;27.93;6.72;;;;;;;34.43;36.37;99699.11;1656193;85;21037;-75
2021/06/23 12:01:51;;;;;;;38.60;8.83;;;;;;;34.18;36.10;99696.48;1655887;86;21085;-74
2021/06/23 12:04:18;;;;;;;28.52;8.28;;;;;;;34.03;36.45;99701.93;1630758;86;21802;-78
2021/06/23 12:06:44;;;;;;;34.60;6.60;;;;;;;33.96;37.06;99706.14;1656044;85;21099;-81
2021/06/23 12:09:11;;;;;;;46.23;8.75;;;;;;;33.97;37.51;99699.36;1642657;86;21667;-81